South Bend, Indiana
Current Conditions -  °F | °C
As of 8:54 PM on Sunday 25 Jan 2015 (Local Time) from KSBN Reporting Station
Overcast Overcast  
Wind Chill: -8°   Ceiling: 4100
Heat Index: -4°   Visibility: 10mi
Dew Point: -9°   Wind: 7mph
Humidity: 66%   Direction: NA
Pressure: 29.93"   Gusts: NA
Location:  41.68°N, 86.25°W
Report Text: KSBN 260154Z VRB06KT 10SM BKN041 OVC050 M04/M09 A2993 RMK AO2 SLP144 T10391094
Loading
Personal Weather Stations






























Interactive Weather Map New forecast layout! Learn more

10-Day Weather Forecast

Advertisements
Track Severe Weather on mobile